Data for 03/01/2010

Time Sea-Level Adjusted Pressure Absolute Pressure Temperature Relative Humidity Dew Point   
(mb) (inHg) (mb) (inHg) (C) (F) (%) (C) (F)
00:05 1020 30.12 849 25.07 -0.2 31.6 73 -4.4 24.1
00:10 1020 30.12 849 25.07 0 32 72 -4.5 23.9
00:15 1020 30.12 849 25.07 0.2 32.3 71 -4.4 24.1
00:20 1020 30.12 849 25.07 0.2 32.3 72 -4.4 24.2
00:25 1020 30.12 849 25.07 0 32 72 -4.4 24.1
00:30 1020 30.12 849 25.07 -0 31.9 72 -4.5 23.9
00:35 1020 30.12 849 25.07 0.2 32.3 72 -4.3 24.2
00:40 1020 30.12 849 25.07 0.1 32.2 72 -4.3 24.3
00:45 1020 30.12 849 25.07 -0.3 31.5 75 -4.3 24.3
00:50 1020 30.12 849 25.07 -0.2 31.6 73 -4.4 24
00:55 1020 30.12 849 25.07 -0.4 31.3 75 -4.3 24.3
01:00 1020 30.12 849 25.07 -0.6 30.8 75 -4.6 23.8
01:05 1020 30.12 849 25.07 -1.1 30.1 77 -4.6 23.7
01:10 1020 30.12 849 25.07 -1.1 30 77 -4.7 23.5
01:15 1020 30.12 849 25.07 -0.8 30.6 75 -4.7 23.5
01:20 1020 30.12 849 25.07 -0.7 30.8 75 -4.6 23.7
01:25 1020 30.12 849 25.07 -0.7 30.8 75 -4.6 23.7
01:30 1020 30.12 849 25.07 -0.7 30.8 74 -4.7 23.5
01:35 1020 30.12 849 25.07 -0.7 30.7 75 -4.7 23.6
01:40 1020 30.12 849 25.07 -0.5 31.2 73 -4.7 23.5
01:45 1020 30.12 849 25.07 -0.3 31.5 73 -4.6 23.7
01:50 1020 30.12 849 25.07 -0.5 31.2 73 -4.7 23.5
01:55 1020 30.12 849 25.07 -0.6 30.9 74 -4.7 23.5
02:00 1020 30.12 850 25.1 -0.7 30.8 73 -4.9 23.3
02:05 1020 30.12 850 25.1 -0.6 30.9 73 -4.8 23.3
02:10 1020 30.12 850 25.1 -0.8 30.5 74 -4.9 23.2
02:15 1020 30.12 850 25.1 -0.9 30.3 74 -5 23
02:20 1020 30.12 850 25.1 -0.7 30.8 73 -5 23
02:25 1020 30.12 850 25.1 -0.9 30.3 75 -4.8 23.3
02:30 1020 30.12 850 25.1 -1.4 29.5 76 -5 22.9
02:35 1020 30.12 850 25.1 -1.3 29.7 76 -4.9 23.1
02:40 1020 30.12 850 25.1 -1.3 29.7 77 -4.8 23.3
02:45 1020 30.12 850 25.1 -1.3 29.7 77 -4.8 23.4
02:50 1020 30.12 850 25.1 -1.3 29.6 77 -4.9 23.2
02:55 1020 30.12 850 25.1 -1.6 29.2 77 -5 22.9
03:00 1020 30.12 850 25.1 -1.6 29.1 77 -5.2 22.7
03:05 1020 30.12 850 25.1 -1.6 29.1 77 -5.1 22.8
03:10 1020 30.12 850 25.1 -1.8 28.8 78 -5.2 22.7
03:15 1020 30.12 850 25.1 -1.7 29 77 -5.1 22.8
03:20 1020 30.12 850 25.1 -1.6 29.2 77 -5.2 22.7
03:25 1020 30.12 850 25.1 -1.3 29.7 75 -5.1 22.8
03:30 1020 30.12 850 25.1 -1.3 29.7 75 -5.1 22.8
03:35 1021 30.15 850 25.1 -1.4 29.5 75 -5.2 22.6
03:40 1021 30.15 850 25.1 -1.6 29.2 76 -5.3 22.4
03:45 1021 30.15 850 25.1 -1.7 29 76 -5.3 22.4
03:50 1021 30.15 850 25.1 -1.6 29.1 76 -5.3 22.5
03:55 1021 30.15 850 25.1 -1.5 29.2 76 -5.3 22.5
04:00 1021 30.15 850 25.1 -1.5 29.3 76 -5.2 22.7
04:05 1021 30.15 850 25.1 -1.5 29.4 75 -5.3 22.4
04:10 1021 30.15 850 25.1 -1.6 29.1 76 -5.3 22.4
04:15 1021 30.15 850 25.1 -1.7 29 76 -5.4 22.2
04:20 1021 30.15 850 25.1 -1.6 29.1 75 -5.5 22.1
04:25 1021 30.15 850 25.1 -1.5 29.3 75 -5.3 22.4
04:30 1021 30.15 850 25.1 -1.4 29.4 75 -5.4 22.3
04:35 1021 30.15 850 25.1 -1.4 29.4 75 -5.4 22.3
04:40 1021 30.15 850 25.1 -1.4 29.5 75 -5.3 22.5
04:45 1021 30.15 850 25.1 -1.3 29.7 75 -5.3 22.5
04:50 1021 30.15 850 25.1 -1.5 29.3 76 -5.2 22.6
04:55 1021 30.15 850 25.1 -1.6 29.2 75 -5.4 22.3
05:00 1021 30.15 850 25.1 -1.6 29.2 75 -5.4 22.3
05:05 1021 30.15 850 25.1 -1.9 28.6 76 -5.5 22
05:10 1021 30.15 851 25.13 -2.2 28 77 -5.7 21.7
05:15 1021 30.15 851 25.13 -2.2 28.1 77 -5.7 21.7
05:20 1021 30.15 851 25.13 -2.1 28.2 76 -5.8 21.6
05:25 1021 30.15 851 25.13 -2 28.3 76 -5.7 21.7
05:30 1022 30.18 851 25.13 -2.1 28.2 78 -5.5 22.2
05:35 1022 30.18 851 25.13 -2 28.5 77 -5.5 22.2
05:40 1022 30.18 851 25.13 -1.8 28.7 75 -5.7 21.8
05:45 1022 30.18 851 25.13 -1.9 28.6 75 -5.8 21.6
05:50 1022 30.18 851 25.13 -1.7 28.9 73 -5.9 21.4
05:55 1022 30.18 851 25.13 -1.3 29.6 70 -6.1 21.1
06:00 1022 30.18 851 25.13 -1.3 29.6 71 -6 21.3
06:05 1022 30.18 851 25.13 -1.6 29.1 71 -6.2 20.9
06:10 1022 30.18 851 25.13 -1.7 29 72 -6 21.2
06:15 1022 30.18 851 25.13 -1.7 29 71 -6.3 20.6
06:20 1022 30.18 851 25.13 -1.8 28.8 72 -6.1 20.9
06:25 1022 30.18 851 25.13 -1.8 28.8 71 -6.3 20.7
06:30 1022 30.18 851 25.13 -2.1 28.2 73 -6.4 20.5
06:35 1022 30.18 851 25.13 -2.2 28 75 -6.1 21
06:40 1022 30.18 851 25.13 -2.2 28 75 -6.1 21
06:45 1022 30.18 851 25.13 -2.4 27.7 77 -6 21.3
06:50 1022 30.18 851 25.13 -2.5 27.4 77 -6 21.2
06:55 1022 30.18 851 25.13 -2.5 27.5 77 -6 21.2
07:00 1022 30.18 851 25.13 -2.4 27.6 77 -6 21.2
07:05 1022 30.18 851 25.13 -2.2 28.1 74 -6.1 21
07:10 1022 30.18 851 25.13 -2.1 28.3 74 -6.1 21
07:15 1022 30.18 851 25.13 -2.2 28.1 74 -6.3 20.7
07:20 1022 30.18 851 25.13 -2.3 27.9 74 -6.4 20.5
07:25 1022 30.18 851 25.13 -2.2 28.1 73 -6.3 20.6
07:30 1022 30.18 851 25.13 -2.2 28.1 73 -6.4 20.4
07:35 1022 30.18 851 25.13 -2.2 28.1 73 -6.4 20.4
07:40 1022 30.18 851 25.13 -2.1 28.2 73 -6.3 20.7
07:45 1022 30.18 851 25.13 -1.9 28.6 72 -6.3 20.7
07:50 1022 30.18 851 25.13 -1.7 29 70 -6.5 20.4
07:55 1022 30.18 851 25.13 -1.6 29 70 -6.5 20.4
08:00 1022 30.18 851 25.13 -1.5 29.3 69 -6.5 20.3
08:05 1022 30.18 851 25.13 -1.4 29.5 69 -6.4 20.4
08:10 1022 30.18 851 25.13 -1.1 30 67 -6.4 20.4
08:15 1022 30.18 852 25.16 -0.8 30.5 66 -6.3 20.6
08:20 1022 30.18 852 25.16 -0.5 31.2 65 -6.2 20.9
08:25 1022 30.18 852 25.16 -0.2 31.7 64 -6.1 21
08:30 1022 30.18 852 25.16 0.2 32.4 62 -6.2 20.8
08:35 1022 30.18 852 25.16 0.5 32.9 62 -6 21.2
08:40 1022 30.18 852 25.16 0.4 32.7 61 -6.2 20.9
08:45 1022 30.18 852 25.16 0.6 33.2 61 -5.9 21.3
08:50 1022 30.18 852 25.16 0.8 33.5 60 -6.1 21.1
08:55 1022 30.18 852 25.16 1.1 34 60 -5.8 21.6
09:00 1022 30.18 851 25.13 1.3 34.3 60 -5.7 21.8
09:05 1022 30.18 851 25.13 2 35.6 56 -5.8 21.5
09:10 1022 30.18 851 25.13 2.4 36.3 56 -5.5 22.1
09:15 1022 30.18 851 25.13 2.7 36.9 55 -5.4 22.3
09:20 1022 30.18 851 25.13 2.7 36.8 56 -5.3 22.4
09:25 1022 30.18 851 25.13 2.8 37.1 53 -5.7 21.7
09:30 1022 30.18 851 25.13 3.1 37.5 54 -5.3 22.4
09:35 1022 30.18 851 25.13 3.7 38.7 52 -5.3 22.5
09:40 1022 30.18 851 25.13 4.2 39.6 52 -4.7 23.5
09:45 1022 30.18 851 25.13 4.3 39.7 50 -5.2 22.6
09:50 1022 30.18 851 25.13 4 39.3 51 -5.3 22.5
09:55 1022 30.18 851 25.13 4.1 39.4 51 -5.2 22.7
10:00 1022 30.18 851 25.13 4.2 39.6 50 -5.4 22.3
10:05 1022 30.18 851 25.13 4.6 40.3 50 -4.8 23.3
10:10 1022 30.18 851 25.13 5 41 48 -5.2 22.6
10:15 1022 30.18 851 25.13 5.3 41.5 46 -5.5 22.1
10:20 1022 30.18 851 25.13 5.2 41.4 49 -4.6 23.7
10:25 1022 30.18 851 25.13 5.6 42 45 -5.4 22.2
10:30 1022 30.18 851 25.13 5.8 42.4 45 -5.1 22.8
10:35 1022 30.18 851 25.13 5.7 42.3 44 -5.5 22.2
10:40 1022 30.18 851 25.13 5.7 42.2 47 -4.9 23.2
10:45 1022 30.18 851 25.13 5.6 42.1 48 -4.7 23.6
10:50 1022 30.18 851 25.13 5.7 42.2 47 -4.8 23.3
10:55 1022 30.18 851 25.13 6.5 43.7 45 -4.6 23.7
11:00 1022 30.18 851 25.13 5.8 42.5 47 -4.6 23.6
11:05 1022 30.18 851 25.13 6.4 43.6 44 -4.8 23.4
11:10 1022 30.18 851 25.13 5.3 41.6 50 -4.4 24.1
11:15 1022 30.18 851 25.13 5.6 42 48 -4.7 23.5
11:20 1022 30.18 851 25.13 5.8 42.4 51 -3.5 25.6
11:25 1022 30.18 851 25.13 5.5 41.8 47 -4.8 23.3
11:30 1022 30.18 851 25.13 5.9 42.6 47 -4.5 23.8
11:35 1022 30.18 851 25.13 5.3 41.5 50 -4.4 24.1
11:40 1022 30.18 851 25.13 5.7 42.2 47 -4.6 23.6
11:45 1022 30.18 851 25.13 4.8 40.7 55 -3.6 25.6
11:50 1022 30.18 851 25.13 5.5 41.9 50 -4.1 24.7
11:55 1022 30.18 851 25.13 4.9 40.9 52 -4.1 24.7
12:00 1022 30.18 851 25.13 4.9 40.7 51 -4.4 24.2
12:05 1022 30.18 851 25.13 5.7 42.2 49 -4.3 24.3
12:10 1022 30.18 851 25.13 5 41.1 49 -4.9 23.3
12:15 1022 30.18 851 25.13 5 41.1 51 -4.3 24.3
12:20 1022 30.18 851 25.13 5.1 41.2 51 -4.3 24.3
12:25 1022 30.18 851 25.13 6.5 43.7 48 -3.8 25.1
12:30 1022 30.18 851 25.13 6 42.8 49 -4 24.8
12:35 1022 30.18 851 25.13 6.3 43.4 46 -4.3 24.2
12:40 1021 30.15 851 25.13 7 44.6 47 -3.5 25.7
12:45 1021 30.15 851 25.13 7.1 44.7 45 -3.9 24.9
12:50 1021 30.15 851 25.13 6.6 43.9 48 -3.7 25.3
12:55 1021 30.15 851 25.13 6.1 42.9 48 -4 24.8
13:00 1021 30.15 851 25.13 5.7 42.2 48 -4.4 24.1
13:05 1021 30.15 851 25.13 5.6 42.1 50 -4.1 24.7
13:10 1021 30.15 851 25.13 5.5 41.9 49 -4.3 24.2
13:15 1021 30.15 850 25.1 5.7 42.3 49 -4.3 24.3
13:20 1021 30.15 850 25.1 5.9 42.6 50 -3.8 25.1
13:25 1021 30.15 850 25.1 6.3 43.3 42 -5.7 21.8
13:30 1021 30.15 850 25.1 6.6 43.9 45 -4.5 24
13:35 1021 30.15 850 25.1 6.7 44 43 -5.1 22.8
13:40 1021 30.15 850 25.1 6.1 43 45 -4.9 23.2
13:45 1021 30.15 850 25.1 5.9 42.7 46 -4.8 23.4
13:50 1021 30.15 850 25.1 6 42.7 46 -4.7 23.6
13:55 1021 30.15 850 25.1 6 42.8 45 -4.9 23.1
14:00 1021 30.15 850 25.1 6.3 43.3 48 -4 24.7
14:05 1021 30.15 850 25.1 6.8 44.3 45 -4.2 24.4
14:10 1021 30.15 850 25.1 7.1 44.8 44 -4.2 24.4
14:15 1021 30.15 850 25.1 7.5 45.4 42 -4.5 24
14:20 1021 30.15 850 25.1 7.6 45.6 41 -4.9 23.2
14:25 1021 30.15 850 25.1 7.8 46.1 40 -4.8 23.4
14:30 1021 30.15 850 25.1 7.8 46.1 42 -4.4 24
14:35 1021 30.15 850 25.1 8.1 46.5 42 -4.1 24.7
14:40 1021 30.15 850 25.1 8.2 46.7 39 -5 23
14:45 1021 30.15 850 25.1 7.9 46.2 41 -4.6 23.8
14:50 1021 30.15 850 25.1 8 46.4 40 -4.7 23.6
14:55 1021 30.15 850 25.1 7.8 46 39 -5.2 22.7
15:00 1021 30.15 850 25.1 8 46.3 41 -4.4 24.1
15:05 1021 30.15 850 25.1 7.9 46.3 39 -5.2 22.6
15:10 1021 30.15 850 25.1 8 46.4 39 -5 23.1
15:15 1021 30.15 850 25.1 7.6 45.7 42 -4.4 24.1
15:20 1021 30.15 850 25.1 7.2 45 42 -4.9 23.2
15:25 1020 30.12 850 25.1 7.2 45 43 -4.6 23.7
15:30 1020 30.12 850 25.1 7.3 45.1 41 -5.1 22.8
15:35 1020 30.12 850 25.1 6.9 44.5 42 -5.1 22.9
15:40 1020 30.12 849 25.07 6.9 44.5 43 -4.9 23.2
15:45 1020 30.12 849 25.07 7 44.5 41 -5.3 22.4
15:50 1020 30.12 849 25.07 7.2 45 40 -5.4 22.4
15:55 1020 30.12 849 25.07 7.5 45.5 41 -4.8 23.3
16:00 1020 30.12 849 25.07 7.3 45.2 42 -4.8 23.4
16:05 1020 30.12 849 25.07 7.7 45.8 39 -5.5 22.1
16:10 1020 30.12 849 25.07 7.4 45.2 41 -5 22.9
16:15 1020 30.12 849 25.07 7.4 45.2 41 -5.1 22.8
16:20 1020 30.12 849 25.07 7.5 45.5 40 -5.2 22.7
16:25 1020 30.12 849 25.07 7.2 45 41 -5.2 22.6
16:30 1020 30.12 849 25.07 8 46.3 40 -4.9 23.1
16:35 1020 30.12 849 25.07 8.4 47 39 -4.9 23.2
16:40 1020 30.12 849 25.07 8 46.3 39 -5 23
16:45 1020 30.12 849 25.07 7.7 45.8 39 -5.5 22.1
16:50 1020 30.12 849 25.07 8 46.4 39 -5.2 22.7
16:55 1020 30.12 849 25.07 8.1 46.5 38 -5.3 22.4
17:00 1019 30.09 849 25.07 8.2 46.8 38 -5.1 22.8
17:05 1019 30.09 849 25.07 8.1 46.6 38 -5.3 22.5
17:10 1019 30.09 849 25.07 7.7 45.8 39 -5.3 22.4
17:15 1019 30.09 849 25.07 7.5 45.5 39 -5.6 22
17:20 1019 30.09 849 25.07 7.3 45.2 38 -6 21.1
17:25 1019 30.09 849 25.07 7.2 45 37 -6.5 20.4
17:30 1019 30.09 849 25.07 7.3 45.1 38 -6.2 20.8
17:35 1019 30.09 849 25.07 7.3 45.1 37 -6.3 20.6
17:40 1019 30.09 849 25.07 7.3 45.1 37 -6.4 20.4
17:45 1019 30.09 849 25.07 6.9 44.3 38 -6.3 20.6
17:50 1019 30.09 849 25.07 6.7 44 38 -6.5 20.2
17:55 1019 30.09 849 25.07 6.7 44.1 40 -6 21.1
18:00 1019 30.09 849 25.07 6.5 43.7 41 -5.6 21.8
18:05 1019 30.09 849 25.07 6.1 43 42 -5.7 21.7
18:10 1019 30.09 849 25.07 5.9 42.6 44 -5.6 22
18:15 1019 30.09 849 25.07 5.6 42.2 44 -5.7 21.7
18:20 1019 30.09 849 25.07 5 41.1 45 -5.9 21.5
18:25 1019 30.09 849 25.07 4.8 40.7 46 -5.7 21.7
18:30 1019 30.09 849 25.07 4.4 39.9 49 -5.5 22.1
18:35 1019 30.09 849 25.07 3.5 38.3 51 -5.7 21.7
18:40 1020 30.12 849 25.07 3.1 37.6 50 -6.3 20.6
18:45 1020 30.12 849 25.07 2.9 37.2 49 -6.7 20
18:50 1020 30.12 849 25.07 2.6 36.8 50 -6.8 19.7
18:55 1020 30.12 849 25.07 2.3 36.1 50 -7.1 19.3
19:00 1020 30.12 849 25.07 1.9 35.5 51 -7.1 19.3
19:05 1020 30.12 849 25.07 1.8 35.3 50 -7.5 18.5
19:10 1020 30.12 849 25.07 1.8 35.2 49 -7.7 18.1
19:15 1020 30.12 849 25.07 1.6 35 51 -7.5 18.6
19:20 1020 30.12 849 25.07 1.4 34.5 53 -7.3 18.9
19:25 1020 30.12 849 25.07 1.1 34 55 -7 19.3
19:30 1020 30.12 849 25.07 1.1 34 52 -7.6 18.2
19:35 1020 30.12 849 25.07 1.5 34.7 54 -7 19.5
19:40 1020 30.12 849 25.07 1.7 35.1 51 -7.4 18.7
19:45 1019 30.09 849 25.07 2.3 36.1 50 -7.1 19.2
19:50 1019 30.09 849 25.07 2.2 35.9 50 -7.2 19
19:55 1019 30.09 849 25.07 2.3 36.1 50 -7.2 19.1
20:00 1019 30.09 849 25.07 2.3 36.1 49 -7.4 18.7
20:05 1019 30.09 849 25.07 2.1 35.8 50 -7.3 18.9
20:10 1019 30.09 849 25.07 1.8 35.2 51 -7.3 18.8
20:15 1019 30.09 848 25.04 1.5 34.7 52 -7.4 18.7
20:20 1019 30.09 849 25.07 1 33.9 54 -7.3 18.8
20:25 1019 30.09 849 25.07 0.8 33.4 54 -7.5 18.5
20:30 1019 30.09 848 25.04 0.8 33.5 54 -7.4 18.7
20:35 1019 30.09 848 25.04 1.3 34.3 50 -8.1 17.5
20:40 1019 30.09 848 25.04 1.8 35.2 50 -7.5 18.5
20:45 1019 30.09 848 25.04 1.3 34.3 52 -7.5 18.5
20:50 1019 30.09 848 25.04 0.9 33.6 54 -7.4 18.6
20:55 1019 30.09 848 25.04 0.8 33.4 54 -7.4 18.7
21:00 1019 30.09 848 25.04 0.6 33 57 -6.9 19.5
21:05 1019 30.09 848 25.04 0.5 32.9 56 -7.3 18.9
21:10 1019 30.09 848 25.04 0.5 33 55 -7.4 18.6
21:15 1019 30.09 848 25.04 0.5 33 55 -7.4 18.6
21:20 1019 30.09 848 25.04 0.9 33.6 53 -7.8 18
21:25 1019 30.09 848 25.04 1.3 34.3 52 -7.5 18.6
21:30 1019 30.09 848 25.04 1.3 34.3 50 -7.9 17.7
21:35 1019 30.09 848 25.04 1 33.8 52 -7.8 18
21:40 1019 30.09 848 25.04 1 33.9 51 -8 17.6
21:45 1019 30.09 848 25.04 1.1 34 50 -8.1 17.5
21:50 1019 30.09 848 25.04 1.1 34 49 -8.4 17
21:55 1019 30.09 848 25.04 1.1 34 48 -8.6 16.4
22:00 1019 30.09 848 25.04 1.1 34 48 -8.8 16.1
22:05 1019 30.09 848 25.04 1.2 34.2 48 -8.7 16.4
22:10 1019 30.09 848 25.04 1 33.7 49 -8.5 16.7
22:15 1019 30.09 848 25.04 1.1 33.9 48 -8.6 16.5
22:20 1019 30.09 848 25.04 0.8 33.5 51 -8.3 17.1
22:25 1019 30.09 848 25.04 0.7 33.2 51 -8.3 17
22:30 1019 30.09 848 25.04 0.6 33.1 49 -8.9 16.1
22:35 1019 30.09 848 25.04 0.6 33.1 49 -8.9 16.1
22:40 1019 30.09 848 25.04 0.2 32.4 50 -9 15.8
22:45 1019 30.09 848 25.04 0.9 33.6 47 -9.1 15.6
22:50 1019 30.09 848 25.04 1.4 34.5 46 -9.1 15.6
22:55 1019 30.09 848 25.04 1.4 34.6 46 -8.9 15.9
23:00 1019 30.09 848 25.04 1.2 34.2 47 -8.9 16.1
23:05 1019 30.09 848 25.04 1.3 34.3 46 -9 15.8
23:10 1019 30.09 848 25.04 1.1 34 47 -9.1 15.7
23:15 1019 30.09 848 25.04 1.1 34 46 -9.3 15.2
23:20 1019 30.09 848 25.04 1.2 34.2 46 -9.3 15.2
23:25 1019 30.09 848 25.04 0.9 33.6 49 -8.8 16.2
23:30 1019 30.09 848 25.04 0.3 32.5 50 -9 15.8
23:35 1019 30.09 848 25.04 0.3 32.6 47 -9.6 14.7
23:40 1019 30.09 848 25.04 1.1 34 45 -9.6 14.8
23:45 1019 30.09 848 25.04 1.2 34.1 47 -9 15.8
23:50 1019 30.09 848 25.04 0.9 33.7 46 -9.4 15.1
23:55 1019 30.09 848 25.04 1.1 33.9 47 -9.1 15.7
24:00 1019 30.09 848 25.04 0.8 33.4 48 -9.1 15.6